createdAt,value
2018-07-19T00:02:22.208Z,3.35
2018-07-19T00:04:58.290Z,3.50
2018-07-19T00:07:34.517Z,3.20
2018-07-19T00:10:10.908Z,3.55
2018-07-19T00:12:47.249Z,3.37
2018-07-19T00:15:23.640Z,4.28
2018-07-19T00:17:59.979Z,3.30
2018-07-19T00:20:36.227Z,3.30
2018-07-19T00:23:12.373Z,3.00
2018-07-19T00:25:48.512Z,4.60
2018-07-19T00:28:25.020Z,3.50
2018-07-19T00:31:01.323Z,3.62
2018-07-19T00:33:37.557Z,3.52
2018-07-19T00:36:13.729Z,3.10
2018-07-19T00:38:49.645Z,3.83
2018-07-19T00:41:26.064Z,2.87
2018-07-19T00:44:02.099Z,3.72
2018-07-19T00:46:38.390Z,4.05
2018-07-19T00:49:14.516Z,3.60
2018-07-19T00:51:50.887Z,3.37
2018-07-19T00:54:27.147Z,3.60
2018-07-19T00:57:03.402Z,3.85
2018-07-19T00:59:39.668Z,3.20
2018-07-19T01:02:15.791Z,3.47
2018-07-19T01:04:52.248Z,3.00
2018-07-19T01:07:28.595Z,3.45
2018-07-19T01:10:04.835Z,3.87
2018-07-19T01:12:41.206Z,3.40
2018-07-19T01:15:17.549Z,3.60
2018-07-19T01:17:53.749Z,3.30
2018-07-19T01:20:29.955Z,3.37
2018-07-19T01:23:06.338Z,2.90
2018-07-19T01:25:42.200Z,3.08
2018-07-19T01:28:18.687Z,2.87
2018-07-19T01:30:54.956Z,2.80
2018-07-19T01:33:31.205Z,3.55
2018-07-19T01:36:07.350Z,3.33
2018-07-19T01:38:43.880Z,3.60
2018-07-19T01:42:31.395Z,3.72
2018-07-19T01:45:09.829Z,3.67
2018-07-19T01:47:46.029Z,3.45
2018-07-19T01:50:22.014Z,3.83
2018-07-19T01:52:58.278Z,5.08
2018-07-19T01:55:34.415Z,4.08
2018-07-19T01:58:10.855Z,4.70
2018-07-19T02:00:47.038Z,4.12
2018-07-19T02:03:23.285Z,4.58
2018-07-19T02:05:59.686Z,4.67
2018-07-19T02:08:35.830Z,4.42
2018-07-19T02:11:11.967Z,4.95
2018-07-19T02:13:48.149Z,4.20
2018-07-19T02:16:24.440Z,3.85
2018-07-19T02:19:00.728Z,5.00
2018-07-19T02:21:37.045Z,4.05
2018-07-19T02:24:13.204Z,4.78
2018-07-19T02:26:49.639Z,4.42
2018-07-19T02:29:25.859Z,3.72
2018-07-19T02:32:02.196Z,4.92
2018-07-19T02:34:38.258Z,4.90
2018-07-19T02:37:14.315Z,3.75
2018-07-19T02:39:50.557Z,4.15
2018-07-19T02:42:26.668Z,4.28
2018-07-19T02:45:02.706Z,5.53
2018-07-19T02:47:38.878Z,4.45
2018-07-19T02:50:15.149Z,5.20
2018-07-19T02:52:51.118Z,5.05
2018-07-19T02:55:27.429Z,6.40
2018-07-19T02:58:03.687Z,4.95
2018-07-19T03:00:39.878Z,5.40
2018-07-19T03:03:15.949Z,6.20
2018-07-19T03:05:51.951Z,5.28
2018-07-19T03:08:27.978Z,6.03
2018-07-19T03:11:04.150Z,5.80
2018-07-19T03:13:40.266Z,6.65
2018-07-19T03:16:16.411Z,5.70
2018-07-19T03:18:52.608Z,5.92
2018-07-19T03:21:28.769Z,6.22
2018-07-19T03:24:05.113Z,5.72
2018-07-19T03:26:41.480Z,6.40
2018-07-19T03:29:17.542Z,6.08
2018-07-19T03:31:53.879Z,5.40
2018-07-19T03:34:30.092Z,5.35
2018-07-19T03:37:06.315Z,6.65
2018-07-19T03:39:42.491Z,6.70
2018-07-19T03:42:18.680Z,6.55
2018-07-19T03:44:54.800Z,6.20
2018-07-19T03:47:31.069Z,6.03
2018-07-19T03:50:07.645Z,7.25
2018-07-19T03:52:43.926Z,6.25
2018-07-19T03:55:19.947Z,5.80
2018-07-19T03:57:56.019Z,6.67
2018-07-19T04:00:32.375Z,5.78
2018-07-19T04:03:08.826Z,7.28
2018-07-19T04:05:44.985Z,5.97
2018-07-19T04:08:21.209Z,7.10
2018-07-19T04:10:57.465Z,6.00
2018-07-19T04:13:33.606Z,6.92
2018-07-19T04:16:09.627Z,7.35
2018-07-19T04:18:45.648Z,6.62
2018-07-19T04:21:21.859Z,6.45
2018-07-19T04:23:58.060Z,6.53
2018-07-19T04:26:34.275Z,6.72
2018-07-19T04:29:10.665Z,7.15
2018-07-19T04:31:46.886Z,6.37
2018-07-19T04:34:23.099Z,6.65
2018-07-19T04:36:59.206Z,7.15
2018-07-19T04:39:35.538Z,7.28
2018-07-19T04:42:12.076Z,7.22
2018-07-19T04:44:48.333Z,7.00
2018-07-19T04:47:24.272Z,8.60
2018-07-19T04:50:00.392Z,7.12
2018-07-19T04:52:36.527Z,7.60
2018-07-19T04:55:12.787Z,7.90
2018-07-19T04:57:49.059Z,7.17
2018-07-19T05:00:25.186Z,8.15
2018-07-19T05:03:01.278Z,8.98
2018-07-19T05:05:37.329Z,10.08
2018-07-19T05:08:13.459Z,7.47
2018-07-19T05:10:49.527Z,7.78
2018-07-19T05:13:25.766Z,8.50
2018-07-19T05:16:01.869Z,7.60
2018-07-19T05:18:38.166Z,7.08
2018-07-19T05:21:14.620Z,5.22
2018-07-19T05:23:50.509Z,4.53
2018-07-19T05:26:26.484Z,4.87
2018-07-19T05:29:02.629Z,4.40
2018-07-19T05:31:38.497Z,3.73
2018-07-19T05:34:14.546Z,3.87
2018-07-19T05:36:50.749Z,4.20
2018-07-19T05:39:26.846Z,3.47
2018-07-19T05:42:02.854Z,3.73
2018-07-19T05:44:39.069Z,3.13
2018-07-19T05:47:15.041Z,3.60
2018-07-19T05:49:51.212Z,4.20
2018-07-19T05:52:27.090Z,3.40
2018-07-19T05:55:03.547Z,3.70
2018-07-19T05:57:39.708Z,3.17
2018-07-19T06:00:15.856Z,4.20
2018-07-19T06:02:52.212Z,3.53
2018-07-19T06:05:28.470Z,3.70
2018-07-19T06:08:04.745Z,3.83
2018-07-19T06:10:41.295Z,4.00
2018-07-19T06:13:17.570Z,3.70
2018-07-19T06:15:53.602Z,3.60
2018-07-19T06:18:30.919Z,4.40
2018-07-19T06:21:07.301Z,3.57
2018-07-19T06:23:43.330Z,3.70
2018-07-19T06:26:19.381Z,3.87
2018-07-19T06:28:55.675Z,3.33
2018-07-19T06:31:31.798Z,3.97
2018-07-19T06:34:08.308Z,2.90
2018-07-19T06:36:44.593Z,3.47
2018-07-19T06:39:20.635Z,2.80
2018-07-19T06:41:57.178Z,3.30
2018-07-19T06:44:33.697Z,3.20
2018-07-19T06:47:09.838Z,3.07
2018-07-19T06:49:45.929Z,2.73
2018-07-19T06:52:22.114Z,2.93
2018-07-19T06:54:58.747Z,3.37
2018-07-19T06:57:35.098Z,3.10
2018-07-19T07:00:11.158Z,3.13
2018-07-19T07:02:47.537Z,3.77
2018-07-19T07:05:24.027Z,3.50
2018-07-19T07:07:59.713Z,3.70
2018-07-19T07:10:37.091Z,3.30
2018-07-19T07:13:13.334Z,3.83
2018-07-19T07:15:49.334Z,3.43
2018-07-19T07:18:25.570Z,4.30
2018-07-19T07:21:02.394Z,4.10
2018-07-19T07:23:38.383Z,4.30
2018-07-19T07:26:14.716Z,4.87
2018-07-19T07:28:51.053Z,4.50
2018-07-19T07:31:27.350Z,4.80
2018-07-19T07:34:03.696Z,3.80
2018-07-19T07:36:40.175Z,4.40
2018-07-19T07:39:16.396Z,4.73
2018-07-19T07:41:52.570Z,4.17
2018-07-19T07:44:28.711Z,4.70
2018-07-19T07:47:05.054Z,4.63
2018-07-19T07:49:41.059Z,5.10
2018-07-19T07:52:17.341Z,4.67
2018-07-19T07:54:53.367Z,4.10
2018-07-19T07:57:29.567Z,4.70
2018-07-19T08:00:06.197Z,4.53
2018-07-19T08:02:42.488Z,4.90
2018-07-19T08:05:18.714Z,3.90
2018-07-19T08:07:54.707Z,4.13
2018-07-19T08:10:30.850Z,4.90
2018-07-19T08:13:07.667Z,5.73
2018-07-19T08:15:43.924Z,4.00
2018-07-19T08:18:20.062Z,4.40
2018-07-19T08:20:56.005Z,5.40
2018-07-19T08:23:32.135Z,4.67
2018-07-19T08:26:08.209Z,3.67
2018-07-19T08:28:44.486Z,3.53
2018-07-19T08:31:20.867Z,4.37
2018-07-19T08:33:57.048Z,3.90
2018-07-19T08:36:33.125Z,4.20
2018-07-19T08:39:12.558Z,4.13
2018-07-19T08:41:48.886Z,4.17
2018-07-19T08:44:24.648Z,3.60
2018-07-19T08:47:00.755Z,3.50
2018-07-19T08:49:37.026Z,4.17
2018-07-19T08:52:13.150Z,3.57
2018-07-19T08:54:49.488Z,3.90
2018-07-19T08:57:25.719Z,3.80
2018-07-19T09:00:02.203Z,3.40
2018-07-19T09:02:38.470Z,2.80
2018-07-19T09:05:14.859Z,3.60
2018-07-19T09:07:51.089Z,4.00
2018-07-19T09:10:26.626Z,3.87
2018-07-19T09:13:02.528Z,3.77
2018-07-19T09:15:38.773Z,3.83
2018-07-19T09:18:15.026Z,3.50
2018-07-19T09:20:51.089Z,3.17
2018-07-19T09:23:27.348Z,3.90
2018-07-19T09:26:03.468Z,4.30
2018-07-19T09:28:39.669Z,3.77
2018-07-19T09:31:15.670Z,3.90
2018-07-19T09:33:51.888Z,3.90
2018-07-19T09:36:27.885Z,3.43
2018-07-19T09:39:04.269Z,3.57
2018-07-19T09:41:41.016Z,2.93
2018-07-19T09:44:17.230Z,3.87
2018-07-19T09:46:53.568Z,3.40
2018-07-19T09:49:29.952Z,4.07
2018-07-19T09:52:06.340Z,3.87
2018-07-19T09:54:54.652Z,3.67
2018-07-19T09:57:31.376Z,3.47
2018-07-19T10:00:07.696Z,3.60
2018-07-19T10:02:43.946Z,3.40
2018-07-19T10:05:20.149Z,3.80
2018-07-19T10:07:56.479Z,3.10
2018-07-19T10:10:32.846Z,3.00
2018-07-19T10:13:09.125Z,2.93
2018-07-19T10:15:45.313Z,3.20
2018-07-19T10:18:21.950Z,3.40
2018-07-19T10:20:57.928Z,4.50
2018-07-19T10:23:34.212Z,3.37
2018-07-19T10:26:10.328Z,3.40
2018-07-19T10:28:45.808Z,3.20
2018-07-19T10:31:21.778Z,3.10
2018-07-19T10:33:58.008Z,3.30
2018-07-19T10:36:34.200Z,2.90
2018-07-19T10:39:10.857Z,2.90
2018-07-19T10:41:47.029Z,3.03
2018-07-19T10:44:23.247Z,2.83
2018-07-19T10:46:59.532Z,2.70
2018-07-19T10:49:35.536Z,3.33
2018-07-19T10:52:11.483Z,3.27
2018-07-19T10:54:48.468Z,2.93
2018-07-19T10:57:24.637Z,2.80
2018-07-19T11:00:00.311Z,2.20
2018-07-19T11:02:36.408Z,2.40
2018-07-19T11:05:12.628Z,2.63
2018-07-19T11:07:48.813Z,2.90
2018-07-19T11:10:25.178Z,2.97
2018-07-19T11:13:01.346Z,2.90
2018-07-19T11:15:37.279Z,2.60
2018-07-19T11:18:13.468Z,3.10
2018-07-19T11:20:49.779Z,2.70
2018-07-19T11:23:26.087Z,2.43
2018-07-19T11:26:02.248Z,2.90
2018-07-19T11:28:38.385Z,3.03
2018-07-19T11:31:14.425Z,2.80
2018-07-19T11:33:50.628Z,2.57
2018-07-19T11:36:26.429Z,2.33
2018-07-19T11:39:02.724Z,2.87
2018-07-19T11:41:39.165Z,2.40
2018-07-19T11:44:15.258Z,2.40
2018-07-19T11:46:51.388Z,2.13
2018-07-19T11:49:27.398Z,2.10
2018-07-19T11:52:03.448Z,2.40
2018-07-19T11:54:39.766Z,2.60
2018-07-19T11:57:15.743Z,2.30
2018-07-19T11:59:51.939Z,2.30
2018-07-19T12:02:28.144Z,2.10
2018-07-19T12:05:04.263Z,2.40
2018-07-19T12:07:40.476Z,2.70
2018-07-19T12:10:16.687Z,2.60
2018-07-19T12:12:52.776Z,2.13
2018-07-19T12:15:28.909Z,1.80
2018-07-19T12:18:05.344Z,2.30
2018-07-19T12:20:41.297Z,2.30
2018-07-19T12:23:17.537Z,2.80
2018-07-19T12:25:53.785Z,2.00
2018-07-19T12:28:29.970Z,2.03
2018-07-19T12:31:06.160Z,1.80
2018-07-19T12:33:42.188Z,2.70
2018-07-19T12:36:18.447Z,2.30
2018-07-19T12:38:54.722Z,2.30
2018-07-19T12:41:30.795Z,2.27
2018-07-19T12:44:07.011Z,2.00
2018-07-19T12:46:43.228Z,2.23
2018-07-19T12:49:19.334Z,3.07
2018-07-19T12:51:55.326Z,2.10
2018-07-19T12:54:31.645Z,2.13
2018-07-19T12:57:07.339Z,2.40
2018-07-19T12:59:43.345Z,2.10
2018-07-19T13:02:19.460Z,2.40
2018-07-19T13:04:55.598Z,2.57
2018-07-19T13:07:32.195Z,2.50
2018-07-19T13:10:08.117Z,2.70
2018-07-19T13:12:45.315Z,2.13
2018-07-19T13:15:21.467Z,2.03
2018-07-19T13:17:57.438Z,1.83
2018-07-19T13:20:33.818Z,2.20
2018-07-19T13:23:09.885Z,2.03
2018-07-19T13:25:45.815Z,2.33
2018-07-19T13:28:22.108Z,2.93
2018-07-19T13:30:58.371Z,2.40
2018-07-19T13:33:34.319Z,2.50
2018-07-19T13:36:10.315Z,2.33
2018-07-19T13:38:46.379Z,2.27
2018-07-19T13:41:22.365Z,1.77
2018-07-19T13:43:58.337Z,2.20
2018-07-19T13:46:34.149Z,1.90
2018-07-19T13:49:10.261Z,2.27
2018-07-19T13:51:46.508Z,2.10
2018-07-19T13:54:35.757Z,1.70
2018-07-19T13:57:12.090Z,2.00
2018-07-19T13:59:48.195Z,1.73
2018-07-19T14:02:24.327Z,1.83
2018-07-19T14:05:00.330Z,2.37
2018-07-19T14:07:36.556Z,2.00
2018-07-19T14:10:12.838Z,2.10
2018-07-19T14:12:48.878Z,2.07
2018-07-19T14:15:25.086Z,1.97
2018-07-19T14:18:01.204Z,2.10
2018-07-19T14:20:37.811Z,1.67
2018-07-19T14:23:14.241Z,1.77
2018-07-19T14:25:50.450Z,1.97
2018-07-19T14:28:26.449Z,1.93
2018-07-19T14:31:02.535Z,2.30
2018-07-19T14:33:38.775Z,1.80
2018-07-19T14:36:15.088Z,1.97
2018-07-19T14:38:51.189Z,2.30
2018-07-19T14:41:27.286Z,2.50
2018-07-19T14:44:03.315Z,3.37
2018-07-19T14:46:39.708Z,1.90
2018-07-19T14:49:15.840Z,1.97
2018-07-19T14:51:52.126Z,2.30
2018-07-19T14:54:28.158Z,2.23
2018-07-19T14:57:04.223Z,2.63
2018-07-19T14:59:40.589Z,2.07
2018-07-19T15:02:16.812Z,2.00
2018-07-19T15:04:53.259Z,2.33
2018-07-19T15:07:29.498Z,1.70
2018-07-19T15:10:06.465Z,2.30
2018-07-19T15:12:43.103Z,2.03
2018-07-19T15:15:19.383Z,2.40
2018-07-19T15:17:55.409Z,2.17
2018-07-19T15:20:31.718Z,1.90
2018-07-19T15:23:07.788Z,1.80
2018-07-19T15:25:43.995Z,2.17
2018-07-19T15:28:20.225Z,2.80
2018-07-19T15:30:56.458Z,2.50
2018-07-19T15:33:32.863Z,2.30
2018-07-19T15:36:08.859Z,2.13
2018-07-19T15:38:44.809Z,3.27
2018-07-19T15:41:21.068Z,2.00
2018-07-19T15:43:57.175Z,2.20
2018-07-19T15:46:33.419Z,2.40
2018-07-19T15:49:09.508Z,2.30
2018-07-19T15:51:45.624Z,1.80
2018-07-19T15:54:21.735Z,2.20
2018-07-19T15:56:58.016Z,2.00
2018-07-19T15:59:34.238Z,2.17
2018-07-19T16:02:10.338Z,2.37
2018-07-19T16:04:46.539Z,2.67
2018-07-19T16:07:22.703Z,2.40
2018-07-19T16:09:59.095Z,2.20
2018-07-19T16:12:35.434Z,2.33
2018-07-19T16:15:11.487Z,1.80
2018-07-19T16:17:47.668Z,1.90
2018-07-19T16:20:23.857Z,1.97
2018-07-19T16:23:00.089Z,2.10
2018-07-19T16:25:36.345Z,2.00
2018-07-19T16:28:12.422Z,1.93
2018-07-19T16:30:48.578Z,1.83
2018-07-19T16:33:24.729Z,2.10
2018-07-19T16:36:00.787Z,2.00
2018-07-19T16:38:37.155Z,1.70
2018-07-19T16:41:12.767Z,2.03
2018-07-19T16:43:48.949Z,1.80
2018-07-19T16:46:25.384Z,1.70
2018-07-19T16:49:01.488Z,1.90
2018-07-19T16:51:37.651Z,2.00
2018-07-19T16:54:13.685Z,1.90
2018-07-19T16:56:50.089Z,1.83
2018-07-19T16:59:26.028Z,1.80
2018-07-19T17:02:02.393Z,1.97
2018-07-19T17:04:38.524Z,1.50
2018-07-19T17:07:14.816Z,1.73
2018-07-19T17:09:50.937Z,1.60
2018-07-19T17:12:27.348Z,1.47
2018-07-19T17:15:03.749Z,1.70
2018-07-19T17:17:39.965Z,1.60
2018-07-19T17:20:15.911Z,1.40
2018-07-19T17:22:52.045Z,1.50
2018-07-19T17:25:28.116Z,1.67
2018-07-19T17:28:04.215Z,1.53
2018-07-19T17:30:40.447Z,1.87
2018-07-19T17:33:16.605Z,1.40
2018-07-19T17:35:52.571Z,1.67
2018-07-19T17:38:28.738Z,1.70
2018-07-19T17:41:04.807Z,1.87
2018-07-19T17:43:41.178Z,1.47
2018-07-19T17:46:17.595Z,1.30
2018-07-19T17:48:53.699Z,1.90
2018-07-19T17:51:29.728Z,1.70
2018-07-19T17:54:06.148Z,1.77
2018-07-19T17:56:42.302Z,1.70
2018-07-19T17:59:18.352Z,1.30
2018-07-19T18:01:54.686Z,1.43
2018-07-19T18:04:30.871Z,1.70
2018-07-19T18:07:07.064Z,1.30
2018-07-19T18:09:43.387Z,1.30
2018-07-19T18:12:19.415Z,1.17
2018-07-19T18:14:55.597Z,1.30
2018-07-19T18:17:31.537Z,1.60
2018-07-19T18:20:07.795Z,1.40
2018-07-19T18:22:43.865Z,1.97
2018-07-19T18:25:20.027Z,1.40
2018-07-19T18:27:56.278Z,1.40
2018-07-19T18:30:32.665Z,1.33
2018-07-19T18:33:08.813Z,1.20
2018-07-19T18:35:45.139Z,1.07
2018-07-19T18:38:21.468Z,1.40
2018-07-19T18:40:57.529Z,1.40
2018-07-19T18:43:33.688Z,1.30
2018-07-19T18:46:09.725Z,1.30
2018-07-19T18:48:45.775Z,1.50
2018-07-19T18:51:21.968Z,1.23
2018-07-19T18:53:58.185Z,1.53
2018-07-19T18:56:34.349Z,1.30
2018-07-19T18:59:10.448Z,1.30
2018-07-19T19:01:46.508Z,1.20
2018-07-19T19:04:22.744Z,1.27
2018-07-19T19:06:58.795Z,1.50
2018-07-19T19:09:35.048Z,1.00
2018-07-19T19:12:11.105Z,1.37
2018-07-19T19:14:47.182Z,1.53
2018-07-19T19:17:23.224Z,1.40
2018-07-19T19:19:59.365Z,1.20
2018-07-19T19:22:35.749Z,1.33
2018-07-19T19:25:12.009Z,1.40
2018-07-19T19:27:48.285Z,1.20
2018-07-19T19:30:24.398Z,1.20
2018-07-19T19:33:00.726Z,1.30
2018-07-19T19:35:36.780Z,1.30
2018-07-19T19:38:13.010Z,1.27
2018-07-19T19:40:49.191Z,1.10
2018-07-19T19:43:25.226Z,1.53
2018-07-19T19:46:01.428Z,1.27
2018-07-19T19:48:37.875Z,1.43
2018-07-19T19:51:13.948Z,1.30
2018-07-19T19:53:50.015Z,1.20
2018-07-19T19:56:26.235Z,1.10
2018-07-19T19:59:02.543Z,1.20
2018-07-19T20:01:38.759Z,1.30
2018-07-19T20:04:15.058Z,1.30
2018-07-19T20:06:51.248Z,1.30
2018-07-19T20:09:27.498Z,1.40
2018-07-19T20:12:03.835Z,1.40
2018-07-19T20:14:40.158Z,1.27
2018-07-19T20:17:16.570Z,2.00
2018-07-19T20:19:52.624Z,1.67
2018-07-19T20:22:28.623Z,1.43
2018-07-19T20:25:04.880Z,1.20
2018-07-19T20:27:41.996Z,1.37
2018-07-19T20:30:18.122Z,1.60
2018-07-19T20:32:54.465Z,1.57
2018-07-19T20:35:30.628Z,1.30
2018-07-19T20:38:06.576Z,2.45
2018-07-19T20:40:42.748Z,1.50
2018-07-19T20:43:18.666Z,1.72
2018-07-19T20:45:54.969Z,1.62
2018-07-19T20:48:31.076Z,1.30
2018-07-19T20:51:07.508Z,1.77
2018-07-19T20:53:43.658Z,1.37
2018-07-19T20:56:20.055Z,1.87
2018-07-19T20:58:56.481Z,1.80
2018-07-19T21:01:32.437Z,2.00
2018-07-19T21:04:08.684Z,1.57
2018-07-19T21:06:44.749Z,1.80
2018-07-19T21:09:20.998Z,1.90
2018-07-19T21:11:56.750Z,1.80
2018-07-19T21:14:32.709Z,2.27
2018-07-19T21:17:08.866Z,2.12
2018-07-19T21:19:44.948Z,1.82
2018-07-19T21:22:21.065Z,2.05
2018-07-19T21:24:57.141Z,2.37
2018-07-19T21:27:33.481Z,2.15
2018-07-19T21:30:09.505Z,2.02
2018-07-19T21:32:46.036Z,1.67
2018-07-19T21:35:22.288Z,2.00
2018-07-19T21:37:58.388Z,2.65
2018-07-19T21:40:34.299Z,2.00
2018-07-19T21:43:10.701Z,1.65
2018-07-19T21:45:47.420Z,1.77
2018-07-19T21:48:23.645Z,1.80
2018-07-19T21:50:59.549Z,2.60
2018-07-19T21:53:35.779Z,1.60
2018-07-19T21:56:12.160Z,2.02
2018-07-19T21:58:48.288Z,1.60
2018-07-19T22:01:24.999Z,3.05
2018-07-19T22:04:01.397Z,1.72
2018-07-19T22:06:37.370Z,1.98
2018-07-19T22:09:14.026Z,1.72
2018-07-19T22:11:50.365Z,1.50
2018-07-19T22:14:27.169Z,2.12
2018-07-19T22:17:03.488Z,1.77
2018-07-19T22:19:39.599Z,1.70
2018-07-19T22:22:15.816Z,2.00
2018-07-19T22:24:52.059Z,1.80
2018-07-19T22:27:28.346Z,1.70
2018-07-19T22:30:04.469Z,1.60
2018-07-19T22:32:40.710Z,1.98
2018-07-19T22:35:16.996Z,1.90
2018-07-19T22:37:53.223Z,3.22
2018-07-19T22:40:29.676Z,2.25
2018-07-19T22:43:05.950Z,2.47
2018-07-19T22:45:42.338Z,2.15
2018-07-19T22:48:18.479Z,1.82
2018-07-19T22:50:56.474Z,2.05
2018-07-19T22:53:34.190Z,1.90
2018-07-19T22:56:10.611Z,2.37
2018-07-19T22:58:46.832Z,2.50
2018-07-19T23:01:23.155Z,2.30
2018-07-19T23:03:59.547Z,2.10
2018-07-19T23:06:35.716Z,2.00
2018-07-19T23:09:12.168Z,2.35
2018-07-19T23:11:48.445Z,2.35
2018-07-19T23:14:24.646Z,3.12
2018-07-19T23:17:00.730Z,2.50
2018-07-19T23:19:37.015Z,2.10
2018-07-19T23:22:13.199Z,2.85
2018-07-19T23:24:49.551Z,2.98
2018-07-19T23:27:27.520Z,2.70
2018-07-19T23:30:04.868Z,2.67
2018-07-19T23:32:41.086Z,2.90
2018-07-19T23:35:17.708Z,2.50
2018-07-19T23:37:58.632Z,2.70
2018-07-19T23:40:37.390Z,2.30
2018-07-19T23:43:20.684Z,2.70
2018-07-19T23:49:12.954Z,3.00
2018-07-19T23:51:49.459Z,3.95
2018-07-19T23:54:25.549Z,2.60
2018-07-19T23:57:01.970Z,2.95
2018-07-19T23:59:38.146Z,2.60
